sensor_id;sensor_type;location;lat;lon;timestamp;pressure;altitude;pressure_sealevel;temperature;humidity
73429;BME280;61643;49.564;17.412;2022-09-09T00:00:21;98011.72;;;14.32;92.50
73429;BME280;61643;49.564;17.412;2022-09-09T00:03:40;98015.50;;;14.37;90.70
73429;BME280;61643;49.564;17.412;2022-09-09T00:08:36;98014.41;;;14.32;90.05
73429;BME280;61643;49.564;17.412;2022-09-09T00:11:03;98016.63;;;14.30;90.25
73429;BME280;61643;49.564;17.412;2022-09-09T00:16:10;98022.38;;;14.24;90.32
73429;BME280;61643;49.564;17.412;2022-09-09T00:21:39;98031.19;;;14.06;89.34
73429;BME280;61643;49.564;17.412;2022-09-09T00:24:32;98038.00;;;13.98;89.41
73429;BME280;61643;49.564;17.412;2022-09-09T00:27:10;98030.53;;;13.85;89.80
73429;BME280;61643;49.564;17.412;2022-09-09T00:29:46;98036.53;;;13.77;90.09
73429;BME280;61643;49.564;17.412;2022-09-09T00:32:16;98032.19;;;13.81;89.95
73429;BME280;61643;49.564;17.412;2022-09-09T00:34:49;98031.13;;;13.77;89.92
73429;BME280;61643;49.564;17.412;2022-09-09T00:37:16;98034.41;;;13.74;88.98
73429;BME280;61643;49.564;17.412;2022-09-09T00:39:45;98041.47;;;13.70;89.83
73429;BME280;61643;49.564;17.412;2022-09-09T00:42:31;98043.69;;;13.63;89.15
73429;BME280;61643;49.564;17.412;2022-09-09T00:47:59;98042.38;;;13.50;89.10
73429;BME280;61643;49.564;17.412;2022-09-09T00:58:24;98055.72;;;13.37;89.05
73429;BME280;61643;49.564;17.412;2022-09-09T01:00:57;98052.75;;;13.33;89.92
73429;BME280;61643;49.564;17.412;2022-09-09T01:03:37;98058.19;;;13.28;89.57
73429;BME280;61643;49.564;17.412;2022-09-09T01:14:30;98058.53;;;13.16;89.39
73429;BME280;61643;49.564;17.412;2022-09-09T01:17:01;98065.53;;;13.17;89.08
73429;BME280;61643;49.564;17.412;2022-09-09T01:22:26;98060.44;;;13.11;89.31
73429;BME280;61643;49.564;17.412;2022-09-09T01:27:49;98061.78;;;13.03;89.04
73429;BME280;61643;49.564;17.412;2022-09-09T01:30:21;98060.22;;;12.87;90.83
73429;BME280;61643;49.564;17.412;2022-09-09T01:32:52;98066.19;;;12.74;91.67
73429;BME280;61643;49.564;17.412;2022-09-09T01:38:04;98065.09;;;12.80;91.67
73429;BME280;61643;49.564;17.412;2022-09-09T01:40:31;98063.44;;;12.89;90.82
73429;BME280;61643;49.564;17.412;2022-09-09T01:42:57;98065.88;;;12.91;90.66
73429;BME280;61643;49.564;17.412;2022-09-09T01:45:23;98060.75;;;12.89;89.91
73429;BME280;61643;49.564;17.412;2022-09-09T01:47:49;98072.13;;;12.76;90.88
73429;BME280;61643;49.564;17.412;2022-09-09T01:53:37;98065.38;;;12.73;89.97
73429;BME280;61643;49.564;17.412;2022-09-09T01:56:55;98069.72;;;12.69;89.91
73429;BME280;61643;49.564;17.412;2022-09-09T02:07:43;98067.88;;;12.40;91.76
73429;BME280;61643;49.564;17.412;2022-09-09T02:10:16;98070.03;;;12.43;91.33
73429;BME280;61643;49.564;17.412;2022-09-09T02:12:46;98055.75;;;12.37;91.34
73429;BME280;61643;49.564;17.412;2022-09-09T02:18:08;98060.88;;;12.23;90.91
73429;BME280;61643;49.564;17.412;2022-09-09T02:20:38;98067.63;;;12.26;91.47
73429;BME280;61643;49.564;17.412;2022-09-09T02:23:05;98071.13;;;12.21;91.71
73429;BME280;61643;49.564;17.412;2022-09-09T02:25:33;98076.25;;;12.13;92.11
73429;BME280;61643;49.564;17.412;2022-09-09T02:28:01;98075.47;;;12.22;91.31
73429;BME280;61643;49.564;17.412;2022-09-09T02:30:29;98077.34;;;12.17;90.23
73429;BME280;61643;49.564;17.412;2022-09-09T02:32:58;98068.44;;;12.06;92.05
73429;BME280;61643;49.564;17.412;2022-09-09T02:35:27;98071.13;;;12.16;90.56
73429;BME280;61643;49.564;17.412;2022-09-09T02:37:59;98082.44;;;12.08;90.87
73429;BME280;61643;49.564;17.412;2022-09-09T02:40:26;98079.22;;;12.01;92.06
73429;BME280;61643;49.564;17.412;2022-09-09T02:42:54;98084.34;;;12.08;90.92
73429;BME280;61643;49.564;17.412;2022-09-09T02:45:23;98084.34;;;12.08;90.30
73429;BME280;61643;49.564;17.412;2022-09-09T02:53:19;98101.31;;;12.08;89.15
73429;BME280;61643;49.564;17.412;2022-09-09T02:56:08;98104.56;;;12.05;89.33
73429;BME280;61643;49.564;17.412;2022-09-09T02:58:37;98102.13;;;11.99;89.54
73429;BME280;61643;49.564;17.412;2022-09-09T03:01:02;98107.28;;;12.00;89.42
73429;BME280;61643;49.564;17.412;2022-09-09T03:03:28;98110.53;;;11.97;89.43
73429;BME280;61643;49.564;17.412;2022-09-09T03:05:54;98108.88;;;11.91;89.65
73429;BME280;61643;49.564;17.412;2022-09-09T03:08:19;98104.81;;;11.83;89.51
73429;BME280;61643;49.564;17.412;2022-09-09T03:10:45;98100.78;;;11.81;90.08
73429;BME280;61643;49.564;17.412;2022-09-09T03:13:10;98103.72;;;11.79;90.67
73429;BME280;61643;49.564;17.412;2022-09-09T03:15:37;98104.53;;;11.75;91.14
73429;BME280;61643;49.564;17.412;2022-09-09T03:18:03;98100.47;;;11.72;91.85
73429;BME280;61643;49.564;17.412;2022-09-09T03:20:29;98111.28;;;11.77;92.25
73429;BME280;61643;49.564;17.412;2022-09-09T03:22:55;98105.34;;;11.80;92.23
73429;BME280;61643;49.564;17.412;2022-09-09T03:25:22;98102.41;;;11.92;91.88
73429;BME280;61643;49.564;17.412;2022-09-09T03:27:49;98101.34;;;11.93;92.46
73429;BME280;61643;49.564;17.412;2022-09-09T03:30:15;98095.63;;;11.74;92.76
73429;BME280;61643;49.564;17.412;2022-09-09T03:32:40;98101.88;;;11.85;92.36
73429;BME280;61643;49.564;17.412;2022-09-09T03:35:06;98100.50;;;11.88;92.73
73429;BME280;61643;49.564;17.412;2022-09-09T03:37:31;98101.59;;;11.92;92.25
73429;BME280;61643;49.564;17.412;2022-09-09T03:39:57;98096.50;;;12.00;92.59
73429;BME280;61643;49.564;17.412;2022-09-09T03:42:22;98095.38;;;11.91;91.10
73429;BME280;61643;49.564;17.412;2022-09-09T03:44:48;98094.84;;;11.79;92.18
73429;BME280;61643;49.564;17.412;2022-09-09T03:47:16;98091.28;;;11.63;92.53
73429;BME280;61643;49.564;17.412;2022-09-09T03:49:42;98098.53;;;11.63;92.51
73429;BME280;61643;49.564;17.412;2022-09-09T03:52:08;98092.88;;;11.59;92.75
73429;BME280;61643;49.564;17.412;2022-09-09T03:54:34;98096.38;;;11.65;91.42
73429;BME280;61643;49.564;17.412;2022-09-09T03:57:00;98108.22;;;11.59;91.86
73429;BME280;61643;49.564;17.412;2022-09-09T03:59:25;98116.31;;;11.59;91.50
73429;BME280;61643;49.564;17.412;2022-09-09T04:01:51;98116.59;;;11.62;91.05
73429;BME280;61643;49.564;17.412;2022-09-09T04:04:16;98115.53;;;11.68;90.73
73429;BME280;61643;49.564;17.412;2022-09-09T04:06:42;98123.63;;;11.68;90.39
73429;BME280;61643;49.564;17.412;2022-09-09T04:09:07;98120.63;;;11.65;89.89
73429;BME280;61643;49.564;17.412;2022-09-09T04:11:33;98119.31;;;11.57;89.92
73429;BME280;61643;49.564;17.412;2022-09-09T04:13:59;98122.25;;;11.56;89.44
73429;BME280;61643;49.564;17.412;2022-09-09T04:16:24;98122.78;;;11.53;89.88
73429;BME280;61643;49.564;17.412;2022-09-09T04:18:49;98131.13;;;11.46;90.12
73429;BME280;61643;49.564;17.412;2022-09-09T04:21:15;98127.03;;;11.44;90.51
73429;BME280;61643;49.564;17.412;2022-09-09T04:23:41;98122.75;;;11.48;90.44
73429;BME280;61643;49.564;17.412;2022-09-09T04:26:07;98118.19;;;11.48;90.35
73429;BME280;61643;49.564;17.412;2022-09-09T04:28:34;98117.34;;;11.38;92.31
73429;BME280;61643;49.564;17.412;2022-09-09T04:31:08;98121.72;;;11.59;91.57
73429;BME280;61643;49.564;17.412;2022-09-09T04:33:34;98114.19;;;11.66;91.45
73429;BME280;61643;49.564;17.412;2022-09-09T04:36:00;98120.13;;;11.68;91.94
73429;BME280;61643;49.564;17.412;2022-09-09T04:38:26;98121.47;;;11.60;91.99
73429;BME280;61643;49.564;17.412;2022-09-09T04:40:51;98125.75;;;11.56;93.57
73429;BME280;61643;49.564;17.412;2022-09-09T04:43:19;98126.03;;;11.60;93.60
73429;BME280;61643;49.564;17.412;2022-09-09T04:45:50;98124.22;;;11.75;92.60
73429;BME280;61643;49.564;17.412;2022-09-09T04:48:17;98122.88;;;11.83;92.26
73429;BME280;61643;49.564;17.412;2022-09-09T04:50:42;98123.97;;;11.82;92.45
73429;BME280;61643;49.564;17.412;2022-09-09T04:53:08;98124.53;;;11.89;93.77
73429;BME280;61643;49.564;17.412;2022-09-09T04:55:34;98126.13;;;11.85;94.43
73429;BME280;61643;49.564;17.412;2022-09-09T04:58:07;98130.19;;;11.93;93.92
73429;BME280;61643;49.564;17.412;2022-09-09T05:00:36;98134.19;;;11.80;93.30
73429;BME280;61643;49.564;17.412;2022-09-09T05:03:03;98137.91;;;11.69;94.21
73429;BME280;61643;49.564;17.412;2022-09-09T05:05:30;98143.63;;;11.72;94.23
73429;BME280;61643;49.564;17.412;2022-09-09T05:08:04;98137.91;;;11.64;94.85
73429;BME280;61643;49.564;17.412;2022-09-09T05:10:30;98136.00;;;11.59;95.50
73429;BME280;61643;49.564;17.412;2022-09-09T05:12:55;98131.50;;;11.75;94.87
73429;BME280;61643;49.564;17.412;2022-09-09T05:15:21;98134.22;;;11.85;94.54
73429;BME280;61643;49.564;17.412;2022-09-09T05:17:46;98131.03;;;12.03;94.36
73429;BME280;61643;49.564;17.412;2022-09-09T05:20:16;98139.41;;;12.22;93.39
73429;BME280;61643;49.564;17.412;2022-09-09T05:22:42;98137.25;;;12.29;93.75
73429;BME280;61643;49.564;17.412;2022-09-09T05:25:08;98124.00;;;12.07;96.16
73429;BME280;61643;49.564;17.412;2022-09-09T05:27:33;98139.94;;;12.19;96.46
73429;BME280;61643;49.564;17.412;2022-09-09T05:29:59;98145.59;;;12.17;97.74
73429;BME280;61643;49.564;17.412;2022-09-09T05:32:24;98140.50;;;12.26;98.02
73429;BME280;61643;49.564;17.412;2022-09-09T05:34:50;98136.16;;;12.25;98.16
73429;BME280;61643;49.564;17.412;2022-09-09T05:37:16;98141.28;;;12.26;98.36
73429;BME280;61643;49.564;17.412;2022-09-09T05:39:41;98133.19;;;12.42;98.17
73429;BME280;61643;49.564;17.412;2022-09-09T05:42:07;98142.91;;;12.53;97.53
73429;BME280;61643;49.564;17.412;2022-09-09T05:44:32;98140.22;;;12.58;98.48
73429;BME280;61643;49.564;17.412;2022-09-09T05:46:58;98135.34;;;12.65;98.36
73429;BME280;61643;49.564;17.412;2022-09-09T05:49:23;98133.97;;;12.82;98.32
73429;BME280;61643;49.564;17.412;2022-09-09T05:51:49;98137.47;;;12.98;97.39
73429;BME280;61643;49.564;17.412;2022-09-09T05:54:15;98135.28;;;13.05;97.86
73429;BME280;61643;49.564;17.412;2022-09-09T05:56:41;98129.31;;;13.18;97.59
73429;BME280;61643;49.564;17.412;2022-09-09T05:59:07;98131.44;;;13.26;98.08
73429;BME280;61643;49.564;17.412;2022-09-09T06:01:34;98133.84;;;13.38;96.98
73429;BME280;61643;49.564;17.412;2022-09-09T06:04:00;98138.38;;;13.53;95.62
73429;BME280;61643;49.564;17.412;2022-09-09T06:06:30;98149.41;;;13.66;95.43
73429;BME280;61643;49.564;17.412;2022-09-09T06:08:56;98152.03;;;13.82;94.95
73429;BME280;61643;49.564;17.412;2022-09-09T06:11:27;98143.84;;;13.92;95.64
73429;BME280;61643;49.564;17.412;2022-09-09T06:13:53;98143.53;;;14.03;95.88
73429;BME280;61643;49.564;17.412;2022-09-09T06:16:21;98151.00;;;14.16;95.63
73429;BME280;61643;49.564;17.412;2022-09-09T06:18:49;98147.47;;;14.16;97.57
73429;BME280;61643;49.564;17.412;2022-09-09T06:21:19;98151.97;;;14.30;96.25
73429;BME280;61643;49.564;17.412;2022-09-09T06:23:46;98151.13;;;14.40;94.67
73429;BME280;61643;49.564;17.412;2022-09-09T06:26:23;98152.72;;;14.46;94.14
73429;BME280;61643;49.564;17.412;2022-09-09T06:28:51;98157.56;;;14.49;93.15
73429;BME280;61643;49.564;17.412;2022-09-09T06:31:19;98148.59;;;14.54;92.97
73429;BME280;61643;49.564;17.412;2022-09-09T06:33:53;98152.28;;;14.63;93.37
73429;BME280;61643;49.564;17.412;2022-09-09T06:36:31;98156.03;;;14.72;94.15
73429;BME280;61643;49.564;17.412;2022-09-09T06:38:56;98154.56;;;14.79;93.34
73429;BME280;61643;49.564;17.412;2022-09-09T06:41:24;98148.03;;;14.86;92.48
73429;BME280;61643;49.564;17.412;2022-09-09T06:43:51;98156.78;;;14.77;92.33
73429;BME280;61643;49.564;17.412;2022-09-09T06:46:22;98148.88;;;14.81;91.89
73429;BME280;61643;49.564;17.412;2022-09-09T06:48:48;98155.34;;;14.85;92.00
73429;BME280;61643;49.564;17.412;2022-09-09T06:51:21;98154.19;;;14.91;91.71
73429;BME280;61643;49.564;17.412;2022-09-09T06:53:50;98152.84;;;14.94;92.65
73429;BME280;61643;49.564;17.412;2022-09-09T06:58:41;98152.03;;;14.93;92.09
73429;BME280;61643;49.564;17.412;2022-09-09T07:01:15;98154.66;;;14.98;91.58
73429;BME280;61643;49.564;17.412;2022-09-09T07:03:42;98154.16;;;14.96;91.10
73429;BME280;61643;49.564;17.412;2022-09-09T07:06:17;98151.94;;;14.98;90.91
73429;BME280;61643;49.564;17.412;2022-09-09T07:08:43;98155.25;;;14.95;91.08
73429;BME280;61643;49.564;17.412;2022-09-09T07:11:09;98157.38;;;14.69;92.79
73429;BME280;61643;49.564;17.412;2022-09-09T07:13:36;98155.91;;;14.82;92.68
73429;BME280;61643;49.564;17.412;2022-09-09T07:16:07;98159.03;;;14.94;91.75
73429;BME280;61643;49.564;17.412;2022-09-09T07:18:33;98156.06;;;14.96;91.30
73429;BME280;61643;49.564;17.412;2022-09-09T07:21:00;98152.28;;;14.92;93.45
73429;BME280;61643;49.564;17.412;2022-09-09T07:23:26;98159.72;;;14.81;93.22
73429;BME280;61643;49.564;17.412;2022-09-09T07:25:51;98158.19;;;14.70;94.64
73429;BME280;61643;49.564;17.412;2022-09-09T07:28:18;98150.63;;;14.96;93.10
73429;BME280;61643;49.564;17.412;2022-09-09T07:30:43;98158.97;;;15.04;92.49
73429;BME280;61643;49.564;17.412;2022-09-09T07:33:17;98163.91;;;14.97;93.51
73429;BME280;61643;49.564;17.412;2022-09-09T07:35:45;98168.75;;;14.71;92.97
73429;BME280;61643;49.564;17.412;2022-09-09T07:38:11;98170.09;;;14.69;94.80
73429;BME280;61643;49.564;17.412;2022-09-09T07:40:36;98166.66;;;14.92;95.24
73429;BME280;61643;49.564;17.412;2022-09-09T07:43:02;98158.50;;;14.97;93.42
73429;BME280;61643;49.564;17.412;2022-09-09T07:45:27;98147.47;;;15.12;94.39
73429;BME280;61643;49.564;17.412;2022-09-09T07:47:57;98152.25;;;14.97;94.82
73429;BME280;61643;49.564;17.412;2022-09-09T07:50:23;98157.28;;;15.08;93.88
73429;BME280;61643;49.564;17.412;2022-09-09T07:52:50;98156.47;;;15.32;92.75
73429;BME280;61643;49.564;17.412;2022-09-09T07:55:16;98150.06;;;15.51;93.19
73429;BME280;61643;49.564;17.412;2022-09-09T07:57:41;98148.44;;;15.50;92.85
73429;BME280;61643;49.564;17.412;2022-09-09T08:00:07;98151.19;;;15.69;91.41
73429;BME280;61643;49.564;17.412;2022-09-09T08:02:33;98148.06;;;15.81;91.08
73429;BME280;61643;49.564;17.412;2022-09-09T08:04:58;98143.75;;;15.98;89.37
73429;BME280;61643;49.564;17.412;2022-09-09T08:07:23;98145.50;;;16.08;89.42
73429;BME280;61643;49.564;17.412;2022-09-09T08:09:49;98146.97;;;16.19;89.47
73429;BME280;61643;49.564;17.412;2022-09-09T08:12:15;98146.19;;;16.32;88.86
73429;BME280;61643;49.564;17.412;2022-09-09T08:14:40;98148.41;;;16.30;88.59
73429;BME280;61643;49.564;17.412;2022-09-09T08:17:06;98151.03;;;16.35;87.86
73429;BME280;61643;49.564;17.412;2022-09-09T08:19:31;98151.56;;;16.37;88.35
73429;BME280;61643;49.564;17.412;2022-09-09T08:22:01;98149.88;;;16.41;88.32
73429;BME280;61643;49.564;17.412;2022-09-09T08:24:27;98156.75;;;16.52;87.54
73429;BME280;61643;49.564;17.412;2022-09-09T08:26:52;98153.22;;;16.70;87.22
73429;BME280;61643;49.564;17.412;2022-09-09T08:29:19;98152.03;;;16.77;87.42
73429;BME280;61643;49.564;17.412;2022-09-09T08:31:50;98155.78;;;16.81;86.83
73429;BME280;61643;49.564;17.412;2022-09-09T08:34:16;98162.22;;;16.85;86.74
73429;BME280;61643;49.564;17.412;2022-09-09T08:36:46;98166.19;;;16.92;88.00
73429;BME280;61643;49.564;17.412;2022-09-09T08:39:14;98165.66;;;16.90;86.36
73429;BME280;61643;49.564;17.412;2022-09-09T08:49:44;98157.41;;;16.95;87.61
73429;BME280;61643;49.564;17.412;2022-09-09T08:52:19;98163.25;;;16.89;86.89
73429;BME280;61643;49.564;17.412;2022-09-09T08:54:47;98169.19;;;16.91;86.82
73429;BME280;61643;49.564;17.412;2022-09-09T08:57:20;98168.19;;;17.00;87.11
73429;BME280;61643;49.564;17.412;2022-09-09T08:59:50;98166.91;;;17.11;86.17
73429;BME280;61643;49.564;17.412;2022-09-09T09:02:33;98165.00;;;17.26;85.88
73429;BME280;61643;49.564;17.412;2022-09-09T09:05:20;98160.59;;;17.43;84.68
73429;BME280;61643;49.564;17.412;2022-09-09T09:13:01;98161.69;;;17.56;83.45
73429;BME280;61643;49.564;17.412;2022-09-09T09:15:32;98170.19;;;17.68;84.11
73429;BME280;61643;49.564;17.412;2022-09-09T09:18:02;98172.91;;;17.82;83.42
73429;BME280;61643;49.564;17.412;2022-09-09T09:23:17;98180.56;;;17.93;81.46
73429;BME280;61643;49.564;17.412;2022-09-09T09:25:46;98175.41;;;17.92;82.93
73429;BME280;61643;49.564;17.412;2022-09-09T09:28:23;98172.16;;;18.03;83.02
73429;BME280;61643;49.564;17.412;2022-09-09T09:30:50;98180.53;;;18.07;82.66
73429;BME280;61643;49.564;17.412;2022-09-09T09:33:18;98170.88;;;17.87;81.41
73429;BME280;61643;49.564;17.412;2022-09-09T09:35:45;98176.41;;;17.96;82.08
73429;BME280;61643;49.564;17.412;2022-09-09T09:38:19;98182.34;;;17.98;82.03
73429;BME280;61643;49.564;17.412;2022-09-09T09:40:52;98183.16;;;18.12;82.45
73429;BME280;61643;49.564;17.412;2022-09-09T09:43:37;98192.84;;;18.04;80.22
73429;BME280;61643;49.564;17.412;2022-09-09T09:46:05;98185.88;;;18.12;81.09
73429;BME280;61643;49.564;17.412;2022-09-09T09:48:43;98185.94;;;18.20;81.08
73429;BME280;61643;49.564;17.412;2022-09-09T09:51:13;98185.94;;;18.20;80.54
73429;BME280;61643;49.564;17.412;2022-09-09T09:53:41;98179.69;;;18.20;79.98
73429;BME280;61643;49.564;17.412;2022-09-09T09:56:14;98177.47;;;18.22;79.69
73429;BME280;61643;49.564;17.412;2022-09-09T10:01:24;98175.06;;;18.43;78.33
73429;BME280;61643;49.564;17.412;2022-09-09T10:04:15;98173.63;;;18.59;77.88
73429;BME280;61643;49.564;17.412;2022-09-09T10:06:41;98165.38;;;18.73;76.71
73429;BME280;61643;49.564;17.412;2022-09-09T10:09:26;98163.50;;;18.82;75.95
73429;BME280;61643;49.564;17.412;2022-09-09T10:12:17;98162.78;;;18.90;75.57
73429;BME280;61643;49.564;17.412;2022-09-09T10:22:52;98162.38;;;19.05;74.50
73429;BME280;61643;49.564;17.412;2022-09-09T10:33:08;98146.25;;;19.26;72.87
73429;BME280;61643;49.564;17.412;2022-09-09T10:38:42;98141.63;;;19.26;70.73
73429;BME280;61643;49.564;17.412;2022-09-09T10:41:18;98142.78;;;19.34;70.42
73429;BME280;61643;49.564;17.412;2022-09-09T10:52:16;98140.19;;;19.68;65.04
73429;BME280;61643;49.564;17.412;2022-09-09T10:57:35;98130.09;;;19.77;63.46
73429;BME280;61643;49.564;17.412;2022-09-09T11:01:02;98131.53;;;19.83;62.24
73429;BME280;61643;49.564;17.412;2022-09-09T11:03:03;98135.75;;;19.89;61.84
73429;BME280;61643;49.564;17.412;2022-09-09T11:05:43;98124.47;;;19.91;61.68
73429;BME280;61643;49.564;17.412;2022-09-09T11:08:29;98132.84;;;19.94;60.79
73429;BME280;61643;49.564;17.412;2022-09-09T11:13:44;98137.03;;;20.09;61.67
73429;BME280;61643;49.564;17.412;2022-09-09T11:18:57;98137.69;;;20.23;62.80
73429;BME280;61643;49.564;17.412;2022-09-09T11:21:29;98140.13;;;20.25;60.90
73429;BME280;61643;49.564;17.412;2022-09-09T11:24:09;98145.44;;;20.30;59.71
73429;BME280;61643;49.564;17.412;2022-09-09T11:26:50;98145.91;;;20.40;59.75
73429;BME280;61643;49.564;17.412;2022-09-09T11:40:23;98144.91;;;20.19;59.83
73429;BME280;61643;49.564;17.412;2022-09-09T11:43:01;98145.41;;;20.21;60.53
73429;BME280;61643;49.564;17.412;2022-09-09T11:45:29;98147.81;;;20.23;61.52
73429;BME280;61643;49.564;17.412;2022-09-09T11:47:59;98142.69;;;20.30;62.23
73429;BME280;61643;49.564;17.412;2022-09-09T11:52:51;98146.41;;;20.42;62.79
73429;BME280;61643;49.564;17.412;2022-09-09T11:55:33;98141.91;;;20.46;60.71
73429;BME280;61643;49.564;17.412;2022-09-09T11:57:59;98141.25;;;20.49;63.75
73429;BME280;61643;49.564;17.412;2022-09-09T12:03:04;98136.41;;;20.55;63.56
73429;BME280;61643;49.564;17.412;2022-09-09T12:05:55;98139.31;;;20.58;62.98
73429;BME280;61643;49.564;17.412;2022-09-09T12:08:27;98139.00;;;20.60;62.41
73429;BME280;61643;49.564;17.412;2022-09-09T12:10:56;98131.41;;;20.66;62.86
73429;BME280;61643;49.564;17.412;2022-09-09T12:13:24;98133.50;;;20.77;62.63
73429;BME280;61643;49.564;17.412;2022-09-09T12:15:57;98133.50;;;20.77;60.99
73429;BME280;61643;49.564;17.412;2022-09-09T12:21:07;98135.41;;;20.94;61.80
73429;BME280;61643;49.564;17.412;2022-09-09T12:29:09;98125.59;;;20.84;60.85
73429;BME280;61643;49.564;17.412;2022-09-09T12:36:56;98122.06;;;20.84;58.65
73429;BME280;61643;49.564;17.412;2022-09-09T12:39:31;98125.28;;;20.77;57.30
73429;BME280;61643;49.564;17.412;2022-09-09T12:41:58;98126.56;;;20.88;59.13
73429;BME280;61643;49.564;17.412;2022-09-09T12:44:25;98114.63;;;20.93;59.13
73429;BME280;61643;49.564;17.412;2022-09-09T12:46:53;98119.78;;;20.94;59.06
73429;BME280;61643;49.564;17.412;2022-09-09T12:51:49;98118.66;;;20.95;60.31
73429;BME280;61643;49.564;17.412;2022-09-09T12:54:14;98112.38;;;20.95;61.14
73429;BME280;61643;49.564;17.412;2022-09-09T12:56:45;98104.50;;;20.93;60.67
73429;BME280;61643;49.564;17.412;2022-09-09T12:59:24;98102.88;;;20.92;58.96
73429;BME280;61643;49.564;17.412;2022-09-09T13:01:57;98093.72;;;20.88;59.90
73429;BME280;61643;49.564;17.412;2022-09-09T13:04:23;98096.16;;;20.90;60.12
73429;BME280;61643;49.564;17.412;2022-09-09T13:06:48;98091.34;;;20.87;57.82
73429;BME280;61643;49.564;17.412;2022-09-09T13:09:15;98086.78;;;20.91;58.16
73429;BME280;61643;49.564;17.412;2022-09-09T13:11:48;98086.47;;;20.92;58.96
73429;BME280;61643;49.564;17.412;2022-09-09T13:14:28;98094.22;;;20.90;59.27
73429;BME280;61643;49.564;17.412;2022-09-09T13:16:57;98088.75;;;20.90;59.27
73429;BME280;61643;49.564;17.412;2022-09-09T13:19:23;98084.72;;;20.88;59.26
73429;BME280;61643;49.564;17.412;2022-09-09T13:21:54;98081.81;;;20.84;58.83
73429;BME280;61643;49.564;17.412;2022-09-09T13:24:33;98086.47;;;20.84;58.55
73429;BME280;61643;49.564;17.412;2022-09-09T13:27:02;98088.75;;;20.82;59.01
73429;BME280;61643;49.564;17.412;2022-09-09T13:29:28;98079.28;;;20.79;59.07
73429;BME280;61643;49.564;17.412;2022-09-09T13:32:03;98089.41;;;20.79;59.51
73429;BME280;61643;49.564;17.412;2022-09-09T13:34:34;98082.97;;;20.75;59.92
73429;BME280;61643;49.564;17.412;2022-09-09T13:37:06;98083.78;;;20.75;60.20
73429;BME280;61643;49.564;17.412;2022-09-09T13:39:33;98074.31;;;20.73;60.43
73429;BME280;61643;49.564;17.412;2022-09-09T13:42:00;98068.34;;;20.71;59.81
73429;BME280;61643;49.564;17.412;2022-09-09T13:44:37;98064.34;;;20.68;60.12
73429;BME280;61643;49.564;17.412;2022-09-09T13:47:21;98061.25;;;20.70;60.18
73429;BME280;61643;49.564;17.412;2022-09-09T13:49:51;98063.69;;;20.71;59.77
73429;BME280;61643;49.564;17.412;2022-09-09T13:52:18;98060.78;;;20.76;59.81
73429;BME280;61643;49.564;17.412;2022-09-09T13:54:48;98072.50;;;20.85;59.76
73429;BME280;61643;49.564;17.412;2022-09-09T13:57:16;98072.63;;;20.89;59.04
73429;BME280;61643;49.564;17.412;2022-09-09T13:59:43;98066.50;;;20.92;59.39
73429;BME280;61643;49.564;17.412;2022-09-09T14:02:09;98059.91;;;20.93;59.38
73429;BME280;61643;49.564;17.412;2022-09-09T14:04:34;98061.53;;;20.94;59.93
73429;BME280;61643;49.564;17.412;2022-09-09T14:07:00;98056.22;;;20.89;59.21
73429;BME280;61643;49.564;17.412;2022-09-09T14:09:26;98062.50;;;20.89;59.65
73429;BME280;61643;49.564;17.412;2022-09-09T14:11:51;98051.72;;;20.84;59.02
73429;BME280;61643;49.564;17.412;2022-09-09T14:14:16;98053.19;;;20.82;60.13
73429;BME280;61643;49.564;17.412;2022-09-09T14:16:42;98062.38;;;20.77;60.52
73429;BME280;61643;49.564;17.412;2022-09-09T14:19:08;98062.22;;;20.74;60.78
73429;BME280;61643;49.564;17.412;2022-09-09T14:21:34;98056.59;;;20.70;60.70
73429;BME280;61643;49.564;17.412;2022-09-09T14:24:00;98060.66;;;20.64;60.59
73429;BME280;61643;49.564;17.412;2022-09-09T14:26:25;98058.88;;;20.59;61.43
73429;BME280;61643;49.564;17.412;2022-09-09T14:28:51;98061.00;;;20.54;61.83
73429;BME280;61643;49.564;17.412;2022-09-09T14:31:17;98071.94;;;20.54;62.41
73429;BME280;61643;49.564;17.412;2022-09-09T14:33:43;98073.22;;;20.48;62.48
73429;BME280;61643;49.564;17.412;2022-09-09T14:36:09;98075.63;;;20.49;62.83
73429;BME280;61643;49.564;17.412;2022-09-09T14:38:36;98068.56;;;20.48;62.39
73429;BME280;61643;49.564;17.412;2022-09-09T14:41:07;98070.03;;;20.46;62.91
73429;BME280;61643;49.564;17.412;2022-09-09T14:43:34;98059.59;;;20.39;62.70
73429;BME280;61643;49.564;17.412;2022-09-09T14:46:11;98062.47;;;20.34;63.02
73429;BME280;61643;49.564;17.412;2022-09-09T14:48:37;98061.84;;;20.29;62.43
73429;BME280;61643;49.564;17.412;2022-09-09T14:51:10;98055.69;;;20.23;62.96
73429;BME280;61643;49.564;17.412;2022-09-09T14:53:36;98055.06;;;20.18;63.85
73429;BME280;61643;49.564;17.412;2022-09-09T14:56:04;98049.75;;;20.12;65.59
73429;BME280;61643;49.564;17.412;2022-09-09T14:58:32;98048.00;;;20.08;65.85
73429;BME280;61643;49.564;17.412;2022-09-09T15:01:06;98044.94;;;20.01;65.92
73429;BME280;61643;49.564;17.412;2022-09-09T15:03:31;98052.97;;;19.97;65.45
73429;BME280;61643;49.564;17.412;2022-09-09T15:05:57;98046.88;;;19.92;65.73
73429;BME280;61643;49.564;17.412;2022-09-09T15:08:24;98045.59;;;19.89;66.19
73429;BME280;61643;49.564;17.412;2022-09-09T15:10:49;98050.56;;;19.87;66.74
73429;BME280;61643;49.564;17.412;2022-09-09T15:13:15;98046.56;;;19.85;67.54
73429;BME280;61643;49.564;17.412;2022-09-09T15:15:42;98048.31;;;19.81;68.28
73429;BME280;61643;49.564;17.412;2022-09-09T15:18:08;98047.81;;;19.79;69.07
73429;BME280;61643;49.564;17.412;2022-09-09T15:20:33;98049.78;;;19.78;68.58
73429;BME280;61643;49.564;17.412;2022-09-09T15:23:00;98050.06;;;19.77;68.08
73429;BME280;61643;49.564;17.412;2022-09-09T15:25:26;98047.19;;;19.73;68.64